Time,TemperatureF,DewpointF,PressureIn,WindDirection,WindDirectionDegrees,WindSpeedMPH,WindSpeedGustMPH,Humidity,HourlyPrecipIn,Conditions,Clouds,dailyrainin,SoftwareType,DateUTC
2013-05-18 00:01:00,73.2,64.8,29.98,East,95,0.0,0.0,75,0.00,,,0.00,Wunderground v.1.15,2013-05-18 04:01:00,
2013-05-18 00:02:00,73.2,64.8,29.98,East,93,0.0,0.0,75,0.00,,,0.00,Wunderground v.1.15,2013-05-18 04:02:00,
2013-05-18 00:07:00,73.2,64.8,29.98,East,95,0.0,0.0,75,0.00,,,0.00,Wunderground v.1.15,2013-05-18 04:07:00,
2013-05-18 00:12:00,73.0,64.6,29.98,East,93,0.0,0.0,75,0.00,,,0.00,Wunderground v.1.15,2013-05-18 04:12:00,
2013-05-18 00:17:00,73.0,64.6,29.98,East,93,0.0,0.0,75,0.00,,,0.00,Wunderground v.1.15,2013-05-18 04:17:00,
2013-05-18 00:22:00,72.8,64.4,29.98,East,95,0.0,0.0,75,0.00,,,0.00,Wunderground v.1.15,2013-05-18 04:22:00,
2013-05-18 00:27:00,72.7,64.7,29.98,East,93,0.0,0.0,76,0.00,,,0.00,Wunderground v.1.15,2013-05-18 04:27:00,
2013-05-18 00:32:00,72.5,64.5,29.98,East,95,0.0,0.0,76,0.00,,,0.00,Wunderground v.1.15,2013-05-18 04:32:00,
2013-05-18 00:37:00,72.3,64.3,29.98,East,95,0.0,0.0,76,0.00,,,0.00,Wunderground v.1.15,2013-05-18 04:37:00,
2013-05-18 00:42:00,72.1,64.1,29.98,East,95,0.0,0.0,76,0.00,,,0.00,Wunderground v.1.15,2013-05-18 04:42:00,
2013-05-18 00:47:00,72.1,64.1,29.98,East,95,0.0,0.0,76,0.00,,,0.00,Wunderground v.1.15,2013-05-18 04:47:00,
2013-05-18 00:52:00,72.0,64.0,29.98,East,95,0.0,0.0,76,0.00,,,0.00,Wunderground v.1.15,2013-05-18 04:52:00,
2013-05-18 00:57:00,71.8,63.8,29.98,East,95,0.0,0.0,76,0.00,,,0.00,Wunderground v.1.15,2013-05-18 04:57:00,
2013-05-18 01:02:00,71.8,63.8,29.98,East,93,0.0,0.0,76,0.00,,,0.00,Wunderground v.1.15,2013-05-18 05:02:00,
2013-05-18 01:07:00,71.6,63.6,29.98,East,93,0.0,0.0,76,0.00,,,0.00,Wunderground v.1.15,2013-05-18 05:07:00,
2013-05-18 01:12:00,71.6,63.6,29.98,East,93,0.0,0.0,76,0.00,,,0.00,Wunderground v.1.15,2013-05-18 05:12:00,
2013-05-18 01:17:00,71.5,63.5,29.97,East,95,0.0,0.0,76,0.00,,,0.00,Wunderground v.1.15,2013-05-18 05:17:00,
2013-05-18 01:22:00,71.5,63.9,29.97,East,95,0.0,0.0,77,0.00,,,0.00,Wunderground v.1.15,2013-05-18 05:22:00,
2013-05-18 01:27:00,71.3,63.7,29.97,East,95,0.0,0.0,77,0.00,,,0.00,Wunderground v.1.15,2013-05-18 05:27:00,
2013-05-18 01:32:00,71.3,63.7,29.97,East,95,0.0,0.0,77,0.00,,,0.00,Wunderground v.1.15,2013-05-18 05:32:00,
2013-05-18 01:37:00,71.3,64.1,29.97,East,95,0.0,0.0,78,0.00,,,0.00,Wunderground v.1.15,2013-05-18 05:37:00,
2013-05-18 01:42:00,71.3,64.1,29.97,East,95,0.0,0.0,78,0.00,,,0.00,Wunderground v.1.15,2013-05-18 05:42:00,
2013-05-18 01:47:00,71.3,64.1,29.96,East,93,0.0,0.0,78,0.00,,,0.00,Wunderground v.1.15,2013-05-18 05:47:00,
2013-05-18 01:52:00,71.3,64.1,29.96,East,95,0.0,0.0,78,0.00,,,0.00,Wunderground v.1.15,2013-05-18 05:52:00,
2013-05-18 01:57:00,71.5,64.6,29.96,East,95,0.0,0.0,79,0.00,,,0.00,Wunderground v.1.15,2013-05-18 05:57:00,
2013-05-18 02:02:00,71.5,64.6,29.96,East,93,0.0,0.0,79,0.00,,,0.00,Wunderground v.1.15,2013-05-18 06:02:00,
2013-05-18 02:07:00,71.5,64.6,29.96,East,95,0.0,0.0,79,0.00,,,0.00,Wunderground v.1.15,2013-05-18 06:07:00,
2013-05-18 02:12:00,71.5,64.6,29.96,East,95,0.0,0.0,79,0.00,,,0.00,Wunderground v.1.15,2013-05-18 06:12:00,
2013-05-18 02:17:00,71.5,64.6,29.96,East,95,0.0,0.0,79,0.00,,,0.00,Wunderground v.1.15,2013-05-18 06:17:00,
2013-05-18 02:22:00,71.5,64.6,29.96,East,95,0.0,0.0,79,0.00,,,0.00,Wunderground v.1.15,2013-05-18 06:22:00,
2013-05-18 02:27:00,71.5,64.6,29.96,East,93,0.0,0.0,79,0.00,,,0.00,Wunderground v.1.15,2013-05-18 06:27:00,
2013-05-18 02:32:00,71.5,65.0,29.95,East,93,0.0,0.0,80,0.00,,,0.00,Wunderground v.1.15,2013-05-18 06:32:00,
2013-05-18 02:37:00,71.3,64.8,29.95,East,93,0.0,1.0,80,0.00,,,0.00,Wunderground v.1.15,2013-05-18 06:37:00,
2013-05-18 02:42:00,71.3,64.8,29.95,East,93,0.0,0.0,80,0.00,,,0.00,Wunderground v.1.15,2013-05-18 06:42:00,
2013-05-18 02:47:00,71.3,64.8,29.95,East,90,0.0,0.0,80,0.00,,,0.00,Wunderground v.1.15,2013-05-18 06:47:00,
2013-05-18 02:52:00,71.3,64.8,29.95,East,90,0.0,0.0,80,0.00,,,0.00,Wunderground v.1.15,2013-05-18 06:52:00,
2013-05-18 02:57:00,71.3,64.8,29.95,East,80,0.0,0.0,80,0.00,,,0.00,Wunderground v.1.15,2013-05-18 06:57:00,
2013-05-18 03:02:00,71.3,64.8,29.95,East,82,0.0,0.0,80,0.00,,,0.00,Wunderground v.1.15,2013-05-18 07:02:00,
2013-05-18 03:07:00,71.3,64.8,29.95,East,80,0.0,0.0,80,0.00,,,0.00,Wunderground v.1.15,2013-05-18 07:07:00,
2013-05-18 03:12:00,71.1,64.6,29.95,East,80,0.0,0.0,80,0.00,,,0.00,Wunderground v.1.15,2013-05-18 07:12:00,
2013-05-18 03:17:00,71.1,64.6,29.95,East,80,0.0,0.0,80,0.00,,,0.00,Wunderground v.1.15,2013-05-18 07:17:00,
2013-05-18 03:22:00,71.1,64.6,29.95,East,80,0.0,0.0,80,0.00,,,0.00,Wunderground v.1.15,2013-05-18 07:22:00,
2013-05-18 03:27:00,71.1,64.6,29.95,East,80,0.0,0.0,80,0.00,,,0.00,Wunderground v.1.15,2013-05-18 07:27:00,
2013-05-18 03:32:00,71.1,65.0,29.95,East,80,0.0,0.0,81,0.00,,,0.00,Wunderground v.1.15,2013-05-18 07:32:00,
2013-05-18 03:37:00,71.1,65.0,29.95,East,80,0.0,0.0,81,0.00,,,0.00,Wunderground v.1.15,2013-05-18 07:37:00,
2013-05-18 03:42:00,71.1,65.0,29.95,East,80,0.0,0.0,81,0.00,,,0.00,Wunderground v.1.15,2013-05-18 07:42:00,
2013-05-18 03:47:00,71.1,65.0,29.94,ENE,78,0.0,0.0,81,0.00,,,0.00,Wunderground v.1.15,2013-05-18 07:47:00,
2013-05-18 03:52:00,71.1,65.0,29.94,ENE,76,0.0,0.0,81,0.00,,,0.00,Wunderground v.1.15,2013-05-18 07:52:00,
2013-05-18 03:57:00,71.1,65.0,29.94,ENE,76,0.0,0.0,81,0.00,,,0.00,Wunderground v.1.15,2013-05-18 07:57:00,
2013-05-18 04:02:00,71.1,65.0,29.94,ENE,76,0.0,1.0,81,0.00,,,0.00,Wunderground v.1.15,2013-05-18 08:02:00,
2013-05-18 04:07:00,71.1,65.0,29.94,ENE,76,0.0,1.0,81,0.00,,,0.00,Wunderground v.1.15,2013-05-18 08:07:00,
2013-05-18 04:12:00,71.1,65.0,29.94,ENE,78,0.0,0.0,81,0.00,,,0.00,Wunderground v.1.15,2013-05-18 08:12:00,
2013-05-18 04:17:00,71.1,65.0,29.94,ENE,78,0.0,0.0,81,0.00,,,0.00,Wunderground v.1.15,2013-05-18 08:17:00,
2013-05-18 04:22:00,70.9,65.1,29.94,ENE,76,0.0,1.0,82,0.00,,,0.00,Wunderground v.1.15,2013-05-18 08:22:00,
2013-05-18 04:27:00,70.9,65.1,29.94,ENE,76,0.0,1.0,82,0.00,,,0.00,Wunderground v.1.15,2013-05-18 08:27:00,
2013-05-18 04:32:00,70.8,65.0,29.95,ENE,78,0.0,0.0,82,0.00,,,0.00,Wunderground v.1.15,2013-05-18 08:32:00,
2013-05-18 04:37:00,70.8,65.0,29.95,ENE,76,0.0,0.0,82,0.00,,,0.00,Wunderground v.1.15,2013-05-18 08:37:00,
2013-05-18 04:42:00,70.6,64.8,29.95,ENE,78,0.0,0.0,82,0.00,,,0.00,Wunderground v.1.15,2013-05-18 08:42:00,
2013-05-18 04:47:00,70.6,64.8,29.94,ENE,76,0.0,0.0,82,0.00,,,0.00,Wunderground v.1.15,2013-05-18 08:47:00,
2013-05-18 04:53:00,70.4,64.6,29.94,ENE,76,0.0,0.0,82,0.00,,,0.00,Wunderground v.1.15,2013-05-18 08:53:00,
2013-05-18 04:58:00,70.4,64.6,29.94,ENE,76,0.0,1.0,82,0.00,,,0.00,Wunderground v.1.15,2013-05-18 08:58:00,
2013-05-18 05:03:00,70.3,64.5,29.94,ENE,78,0.0,0.0,82,0.00,,,0.00,Wunderground v.1.15,2013-05-18 09:03:00,
2013-05-18 05:08:00,70.3,64.9,29.94,ENE,76,0.0,0.0,83,0.00,,,0.00,Wunderground v.1.15,2013-05-18 09:08:00,
2013-05-18 05:13:00,70.3,64.9,29.94,ENE,78,0.0,0.0,83,0.00,,,0.00,Wunderground v.1.15,2013-05-18 09:13:00,
2013-05-18 05:18:00,70.3,64.9,29.95,ENE,78,0.0,0.0,83,0.00,,,0.00,Wunderground v.1.15,2013-05-18 09:18:00,
2013-05-18 05:23:00,70.3,64.9,29.95,ENE,76,0.0,0.0,83,0.00,,,0.00,Wunderground v.1.15,2013-05-18 09:23:00,
2013-05-18 05:28:00,70.3,64.9,29.95,ENE,78,0.0,1.0,83,0.00,,,0.00,Wunderground v.1.15,2013-05-18 09:28:00,
2013-05-18 05:33:00,70.3,64.9,29.95,ENE,76,0.0,0.0,83,0.00,,,0.00,Wunderground v.1.15,2013-05-18 09:33:00,
2013-05-18 05:38:00,70.3,64.9,29.95,ENE,78,0.0,0.0,83,0.00,,,0.00,Wunderground v.1.15,2013-05-18 09:38:00,
2013-05-18 05:43:00,70.1,64.7,29.95,ENE,76,0.0,0.0,83,0.00,,,0.00,Wunderground v.1.15,2013-05-18 09:43:00,
2013-05-18 05:48:00,70.1,65.0,29.95,ENE,78,0.0,0.0,84,0.00,,,0.00,Wunderground v.1.15,2013-05-18 09:48:00,
2013-05-18 05:53:00,70.1,65.0,29.95,ENE,76,0.0,0.0,84,0.00,,,0.00,Wunderground v.1.15,2013-05-18 09:53:00,
2013-05-18 05:58:00,69.9,64.8,29.95,ENE,76,0.0,0.0,84,0.00,,,0.00,Wunderground v.1.15,2013-05-18 09:58:00,
2013-05-18 06:03:00,69.9,64.8,29.95,ENE,76,0.0,0.0,84,0.00,,,0.00,Wunderground v.1.15,2013-05-18 10:03:00,
2013-05-18 06:08:00,69.8,64.7,29.95,ENE,76,0.0,0.0,84,0.00,,,0.00,Wunderground v.1.15,2013-05-18 10:08:00,
2013-05-18 06:13:00,69.6,64.5,29.95,ENE,78,0.0,0.0,84,0.00,,,0.00,Wunderground v.1.15,2013-05-18 10:13:00,
2013-05-18 06:18:00,69.6,64.5,29.95,ENE,76,0.0,0.0,84,0.00,,,0.00,Wunderground v.1.15,2013-05-18 10:18:00,
2013-05-18 06:23:00,69.4,64.4,29.95,ENE,76,0.0,0.0,84,0.00,,,0.00,Wunderground v.1.15,2013-05-18 10:23:00,
2013-05-18 06:28:00,69.4,64.4,29.95,ENE,76,0.0,0.0,84,0.00,,,0.00,Wunderground v.1.15,2013-05-18 10:28:00,
2013-05-18 06:33:00,69.4,64.4,29.96,ENE,78,0.0,0.0,84,0.00,,,0.00,Wunderground v.1.15,2013-05-18 10:33:00,
2013-05-18 06:38:00,69.3,64.3,29.96,ENE,76,0.0,0.0,84,0.00,,,0.00,Wunderground v.1.15,2013-05-18 10:38:00,
2013-05-18 06:43:00,69.3,64.3,29.96,ENE,78,0.0,0.0,84,0.00,,,0.00,Wunderground v.1.15,2013-05-18 10:43:00,
2013-05-18 06:48:00,69.1,64.1,29.97,ENE,76,0.0,0.0,84,0.00,,,0.00,Wunderground v.1.15,2013-05-18 10:48:00,
2013-05-18 06:53:00,69.1,64.1,29.97,ENE,78,0.0,0.0,84,0.00,,,0.00,Wunderground v.1.15,2013-05-18 10:53:00,
2013-05-18 06:58:00,69.1,64.1,29.97,ENE,78,0.0,0.0,84,0.00,,,0.00,Wunderground v.1.15,2013-05-18 10:58:00,
2013-05-18 07:03:00,68.9,63.9,29.97,ENE,78,0.0,0.0,84,0.00,,,0.00,Wunderground v.1.15,2013-05-18 11:03:00,
2013-05-18 07:08:00,68.9,64.2,29.97,ENE,76,0.0,0.0,85,0.00,,,0.00,Wunderground v.1.15,2013-05-18 11:08:00,
2013-05-18 07:13:00,69.1,64.4,29.97,ENE,78,0.0,0.0,85,0.00,,,0.00,Wunderground v.1.15,2013-05-18 11:13:00,
2013-05-18 07:18:00,69.1,64.4,29.97,ENE,78,0.0,0.0,85,0.00,,,0.00,Wunderground v.1.15,2013-05-18 11:18:00,
2013-05-18 07:23:00,69.3,64.6,29.97,ENE,78,0.0,0.0,85,0.00,,,0.00,Wunderground v.1.15,2013-05-18 11:23:00,
2013-05-18 07:28:00,69.4,64.7,29.97,ENE,78,0.0,0.0,85,0.00,,,0.00,Wunderground v.1.15,2013-05-18 11:28:00,
2013-05-18 07:33:00,69.8,65.4,29.97,ENE,78,0.0,1.0,86,0.00,,,0.00,Wunderground v.1.15,2013-05-18 11:33:00,
2013-05-18 07:38:00,70.1,65.7,29.97,ENE,73,0.0,1.0,86,0.00,,,0.00,Wunderground v.1.15,2013-05-18 11:38:00,
2013-05-18 07:43:00,70.4,66.0,29.97,East,88,0.0,1.0,86,0.00,,,0.00,Wunderground v.1.15,2013-05-18 11:43:00,
2013-05-18 07:48:00,70.8,66.4,29.98,East,88,0.0,1.0,86,0.00,,,0.00,Wunderground v.1.15,2013-05-18 11:48:00,
2013-05-18 07:53:00,70.9,66.5,29.98,East,86,0.0,0.0,86,0.00,,,0.00,Wunderground v.1.15,2013-05-18 11:53:00,
2013-05-18 07:58:00,71.3,66.9,29.98,East,86,0.0,0.0,86,0.00,,,0.00,Wunderground v.1.15,2013-05-18 11:58:00,
2013-05-18 08:03:00,71.6,66.8,29.98,East,88,0.0,0.0,85,0.00,,,0.00,Wunderground v.1.15,2013-05-18 12:03:00,
2013-05-18 08:08:00,71.8,67.0,29.98,East,88,0.0,0.0,85,0.00,,,0.00,Wunderground v.1.15,2013-05-18 12:08:00,
2013-05-18 08:13:00,72.3,67.5,29.98,East,86,0.0,0.0,85,0.00,,,0.00,Wunderground v.1.15,2013-05-18 12:13:00,
2013-05-18 08:18:00,72.7,68.3,29.98,East,88,0.0,0.0,86,0.00,,,0.00,Wunderground v.1.15,2013-05-18 12:18:00,
2013-05-18 08:23:00,73.3,68.9,29.98,East,80,1.0,1.0,86,0.00,,,0.00,Wunderground v.1.15,2013-05-18 12:23:00,
2013-05-18 08:28:00,74.0,69.2,29.98,SE,143,0.0,5.0,85,0.00,,,0.00,Wunderground v.1.15,2013-05-18 12:28:00,
2013-05-18 08:33:00,74.6,69.8,29.99,South,172,0.0,8.0,85,0.00,,,0.00,Wunderground v.1.15,2013-05-18 12:33:00,
2013-05-18 08:38:00,75.1,70.3,29.99,SE,140,4.0,8.0,85,0.00,,,0.00,Wunderground v.1.15,2013-05-18 12:38:00,
2013-05-18 08:43:00,75.6,70.4,29.99,SE,134,0.0,3.0,84,0.00,,,0.00,Wunderground v.1.15,2013-05-18 12:43:00,
2013-05-18 08:48:00,76.0,70.8,29.99,SSW,192,0.0,5.0,84,0.00,,,0.00,Wunderground v.1.15,2013-05-18 12:48:00,
2013-05-18 08:53:00,76.3,71.1,29.99,SSW,192,0.0,0.0,84,0.00,,,0.00,Wunderground v.1.15,2013-05-18 12:53:00,
2013-05-18 08:58:00,76.8,71.6,29.99,ENE,75,0.0,3.0,84,0.00,,,0.00,Wunderground v.1.15,2013-05-18 12:58:00,
2013-05-18 09:03:00,77.2,71.6,29.99,SSE,152,0.0,1.0,83,0.00,,,0.00,Wunderground v.1.15,2013-05-18 13:03:00,
2013-05-18 09:08:00,77.4,71.8,29.99,South,175,0.0,1.0,83,0.00,,,0.00,Wunderground v.1.15,2013-05-18 13:08:00,
2013-05-18 09:13:00,77.9,72.0,29.99,South,175,0.0,0.0,82,0.00,,,0.00,Wunderground v.1.15,2013-05-18 13:13:00,
2013-05-18 09:18:00,78.1,72.2,30.00,SSE,157,0.0,0.0,82,0.00,,,0.00,Wunderground v.1.15,2013-05-18 13:18:00,
2013-05-18 09:23:00,78.6,72.3,30.00,ESE,116,0.0,0.0,81,0.00,,,0.00,Wunderground v.1.15,2013-05-18 13:23:00,
2013-05-18 09:29:00,79.2,72.9,30.00,SE,130,0.0,0.0,81,0.00,,,0.00,Wunderground v.1.15,2013-05-18 13:29:00,
2013-05-18 09:34:00,79.6,72.9,30.00,ESE,121,0.0,0.0,80,0.00,,,0.00,Wunderground v.1.15,2013-05-18 13:34:00,
2013-05-18 09:39:00,80.1,73.4,30.00,SE,134,0.0,2.0,80,0.00,,,0.00,Wunderground v.1.15,2013-05-18 13:39:00,
2013-05-18 09:44:00,80.5,73.4,30.00,ENE,65,0.0,5.0,79,0.00,,,0.00,Wunderground v.1.15,2013-05-18 13:44:00,
2013-05-18 09:49:00,80.9,73.4,30.00,SSW,196,0.0,5.0,78,0.00,,,0.00,Wunderground v.1.15,2013-05-18 13:49:00,
2013-05-18 09:54:00,81.2,73.7,30.00,ESE,119,0.0,0.0,78,0.00,,,0.00,Wunderground v.1.15,2013-05-18 13:54:00,
2013-05-18 09:59:00,81.6,73.7,30.00,SSE,158,0.0,7.0,77,0.00,,,0.00,Wunderground v.1.15,2013-05-18 13:59:00,
2013-05-18 10:04:00,82.2,73.9,30.00,ESE,103,0.0,0.0,76,0.00,,,0.00,Wunderground v.1.15,2013-05-18 14:04:00,
2013-05-18 10:09:00,82.4,74.1,30.00,ENE,72,2.0,6.0,76,0.00,,,0.00,Wunderground v.1.15,2013-05-18 14:09:00,
2013-05-18 10:14:00,82.8,74.1,30.00,ESE,123,0.0,0.0,75,0.00,,,0.00,Wunderground v.1.15,2013-05-18 14:14:00,
2013-05-18 10:19:00,83.2,74.4,30.00,SSW,199,0.0,1.0,75,0.00,,,0.00,Wunderground v.1.15,2013-05-18 14:19:00,
2013-05-18 10:24:00,83.4,74.2,30.00,SSW,200,0.0,0.0,74,0.00,,,0.00,Wunderground v.1.15,2013-05-18 14:24:00,
2013-05-18 10:29:00,83.6,74.0,30.00,SSE,147,0.0,0.0,73,0.00,,,0.00,Wunderground v.1.15,2013-05-18 14:29:00,
2013-05-18 10:34:00,84.0,74.0,29.99,SSE,148,0.0,0.0,72,0.00,,,0.00,Wunderground v.1.15,2013-05-18 14:34:00,
2013-05-18 10:39:00,84.1,73.7,29.99,SSE,148,0.0,1.0,71,0.00,,,0.00,Wunderground v.1.15,2013-05-18 14:39:00,
2013-05-18 10:44:00,84.3,73.4,29.99,South,171,0.0,1.0,70,0.00,,,0.00,Wunderground v.1.15,2013-05-18 14:44:00,
2013-05-18 10:49:00,84.7,73.4,29.99,SSE,160,0.0,4.0,69,0.00,,,0.00,Wunderground v.1.15,2013-05-18 14:49:00,
2013-05-18 10:54:00,84.9,74.0,29.99,South,176,0.0,1.0,70,0.00,,,0.00,Wunderground v.1.15,2013-05-18 14:54:00,
2013-05-18 10:59:00,85.5,74.2,29.99,West,272,0.0,0.0,69,0.00,,,0.00,Wunderground v.1.15,2013-05-18 14:59:00,
2013-05-18 11:04:00,85.7,74.4,29.99,West,272,0.0,1.0,69,0.00,,,0.00,Wunderground v.1.15,2013-05-18 15:04:00,
2013-05-18 11:09:00,86.1,74.7,29.99,SW,224,0.0,5.0,69,0.00,,,0.00,Wunderground v.1.15,2013-05-18 15:09:00,
2013-05-18 11:14:00,86.5,74.7,29.99,SW,226,0.0,5.0,68,0.00,,,0.00,Wunderground v.1.15,2013-05-18 15:14:00,
2013-05-18 11:19:00,86.1,74.3,29.99,WNW,285,0.0,6.0,68,0.00,,,0.00,Wunderground v.1.15,2013-05-18 15:19:00,
2013-05-18 11:25:00,86.1,74.3,29.99,WSW,254,0.0,6.0,68,0.00,,,0.00,Wunderground v.1.15,2013-05-18 15:25:00,
2013-05-18 11:30:00,86.5,74.7,29.99,SSW,198,0.0,7.0,68,0.00,,,0.00,Wunderground v.1.15,2013-05-18 15:30:00,
2013-05-18 11:35:00,87.0,74.7,29.99,WSW,239,0.0,7.0,67,0.00,,,0.00,Wunderground v.1.15,2013-05-18 15:35:00,
2013-05-18 11:40:00,87.2,74.9,29.99,WNW,285,3.0,3.0,67,0.00,,,0.00,Wunderground v.1.15,2013-05-18 15:40:00,
2013-05-18 11:45:00,87.6,74.8,29.99,SSW,209,0.0,6.0,66,0.00,,,0.00,Wunderground v.1.15,2013-05-18 15:45:00,
2013-05-18 11:50:00,87.8,74.6,29.99,WNW,285,0.0,6.0,65,0.00,,,0.00,Wunderground v.1.15,2013-05-18 15:50:00,
2013-05-18 11:55:00,88.0,74.8,29.99,South,186,7.0,7.0,65,0.00,,,0.00,Wunderground v.1.15,2013-05-18 15:55:00,
2013-05-18 12:00:00,88.0,74.3,29.99,WSW,240,0.0,1.0,64,0.00,,,0.00,Wunderground v.1.15,2013-05-18 16:00:00,
2013-05-18 12:05:00,88.0,74.3,29.99,WNW,298,0.0,6.0,64,0.00,,,0.00,Wunderground v.1.15,2013-05-18 16:05:00,
2013-05-18 12:10:00,88.0,74.3,29.99,WSW,258,0.0,1.0,64,0.00,,,0.00,Wunderground v.1.15,2013-05-18 16:10:00,
2013-05-18 12:15:00,88.4,74.7,29.99,South,175,0.0,6.0,64,0.00,,,0.00,Wunderground v.1.15,2013-05-18 16:15:00,
2013-05-18 12:20:00,88.2,74.0,29.99,SSW,209,0.0,5.0,63,0.00,,,0.00,Wunderground v.1.15,2013-05-18 16:20:00,
2013-05-18 12:25:00,88.2,74.5,29.99,WNW,287,0.0,5.0,64,0.00,,,0.00,Wunderground v.1.15,2013-05-18 16:25:00,
2013-05-18 12:30:00,88.0,73.8,29.98,SSW,198,0.0,0.0,63,0.00,,,0.00,Wunderground v.1.15,2013-05-18 16:30:00,
2013-05-18 12:35:00,88.0,73.8,29.98,West,277,0.0,2.0,63,0.00,,,0.00,Wunderground v.1.15,2013-05-18 16:35:00,
2013-05-18 12:40:00,88.2,74.0,29.98,SSW,208,0.0,1.0,63,0.00,,,0.00,Wunderground v.1.15,2013-05-18 16:40:00,
2013-05-18 12:45:00,88.4,73.7,29.98,SW,215,0.0,6.0,62,0.00,,,0.00,Wunderground v.1.15,2013-05-18 16:45:00,
2013-05-18 12:50:00,88.6,73.4,29.98,SW,224,2.0,4.0,61,0.00,,,0.00,Wunderground v.1.15,2013-05-18 16:50:00,
2013-05-18 12:55:00,88.6,73.4,29.98,SW,226,0.0,8.0,61,0.00,,,0.00,Wunderground v.1.15,2013-05-18 16:55:00,
2013-05-18 13:01:00,88.8,73.1,29.98,SSW,205,0.0,7.0,60,0.00,,,0.00,Wunderground v.1.15,2013-05-18 17:01:00,
2013-05-18 13:06:00,88.8,73.1,29.98,SSW,199,5.0,7.0,60,0.00,,,0.00,Wunderground v.1.15,2013-05-18 17:06:00,
2013-05-18 13:11:00,88.6,72.4,29.98,SSW,208,0.0,4.0,59,0.00,,,0.00,Wunderground v.1.15,2013-05-18 17:11:00,
2013-05-18 13:16:00,88.6,72.4,29.98,SW,232,5.0,7.0,59,0.00,,,0.00,Wunderground v.1.15,2013-05-18 17:16:00,
2013-05-18 13:21:00,88.8,72.6,29.98,WNW,299,0.0,1.0,59,0.00,,,0.00,Wunderground v.1.15,2013-05-18 17:21:00,
2013-05-18 13:26:00,88.8,71.6,29.98,SSW,192,0.0,9.0,57,0.00,,,0.00,Wunderground v.1.15,2013-05-18 17:26:00,
2013-05-18 13:31:00,88.8,72.1,29.98,WNW,289,0.0,8.0,58,0.00,,,0.00,Wunderground v.1.15,2013-05-18 17:31:00,
2013-05-18 13:36:00,88.8,72.6,29.98,NW,309,4.0,8.0,59,0.00,,,0.00,Wunderground v.1.15,2013-05-18 17:36:00,
2013-05-18 13:41:00,88.8,72.1,29.98,West,265,3.0,6.0,58,0.00,,,0.00,Wunderground v.1.15,2013-05-18 17:41:00,
2013-05-18 13:46:00,88.4,72.2,29.98,SW,234,6.0,7.0,59,0.00,,,0.00,Wunderground v.1.15,2013-05-18 17:46:00,
2013-05-18 13:51:00,88.4,72.2,29.98,SSW,199,0.0,7.0,59,0.00,,,0.00,Wunderground v.1.15,2013-05-18 17:51:00,
2013-05-18 13:56:00,88.4,71.7,29.98,SSW,198,0.0,7.0,58,0.00,,,0.00,Wunderground v.1.15,2013-05-18 17:56:00,
2013-05-18 14:01:00,88.4,72.2,29.97,SSW,208,0.0,1.0,59,0.00,,,0.00,Wunderground v.1.15,2013-05-18 18:01:00,
2013-05-18 14:06:00,88.6,72.4,29.97,SSW,206,0.0,1.0,59,0.00,,,0.00,Wunderground v.1.15,2013-05-18 18:06:00,
2013-05-18 14:11:00,88.6,71.4,29.97,WNW,285,6.0,7.0,57,0.00,,,0.00,Wunderground v.1.15,2013-05-18 18:11:00,
2013-05-18 14:16:00,88.4,70.7,29.97,West,274,3.0,7.0,56,0.00,,,0.00,Wunderground v.1.15,2013-05-18 18:16:00,
2013-05-18 14:21:00,88.2,71.0,29.97,WNW,285,1.0,7.0,57,0.00,,,0.00,Wunderground v.1.15,2013-05-18 18:21:00,
2013-05-18 14:26:00,88.4,71.2,29.97,SW,236,0.0,7.0,57,0.00,,,0.00,Wunderground v.1.15,2013-05-18 18:26:00,
2013-05-18 14:31:00,88.6,71.9,29.97,NW,320,0.0,7.0,58,0.00,,,0.00,Wunderground v.1.15,2013-05-18 18:31:00,
2013-05-18 14:36:00,88.6,71.9,29.97,NW,311,0.0,11.0,58,0.00,,,0.00,Wunderground v.1.15,2013-05-18 18:36:00,
2013-05-18 14:41:00,88.2,71.6,29.97,NW,318,0.0,7.0,58,0.00,,,0.00,Wunderground v.1.15,2013-05-18 18:41:00,
2013-05-18 14:46:00,88.0,71.4,29.96,WNW,292,0.0,7.0,58,0.00,,,0.00,Wunderground v.1.15,2013-05-18 18:46:00,
2013-05-18 14:51:00,88.0,70.9,29.96,WNW,291,0.0,5.0,57,0.00,,,0.00,Wunderground v.1.15,2013-05-18 18:51:00,
2013-05-18 14:56:00,87.8,70.7,29.96,NW,309,0.0,7.0,57,0.00,,,0.00,Wunderground v.1.15,2013-05-18 18:56:00,
2013-05-18 15:01:00,87.8,70.1,29.96,West,281,5.0,11.0,56,0.00,,,0.00,Wunderground v.1.15,2013-05-18 19:01:00,
2013-05-18 15:06:00,87.6,71.0,29.96,WSW,247,5.0,11.0,58,0.00,,,0.00,Wunderground v.1.15,2013-05-18 19:06:00,
2013-05-18 15:11:00,87.4,70.8,29.96,WSW,250,0.0,7.0,58,0.00,,,0.00,Wunderground v.1.15,2013-05-18 19:11:00,
2013-05-18 15:16:00,87.2,71.1,29.96,WNW,294,8.0,8.0,59,0.00,,,0.00,Wunderground v.1.15,2013-05-18 19:16:00,
2013-05-18 15:21:00,86.7,70.2,29.96,WNW,296,6.0,11.0,58,0.00,,,0.00,Wunderground v.1.15,2013-05-18 19:21:00,
2013-05-18 15:26:00,86.3,70.3,29.96,WSW,254,0.0,11.0,59,0.00,,,0.00,Wunderground v.1.15,2013-05-18 19:26:00,
2013-05-18 15:31:00,86.1,70.6,29.95,WSW,254,0.0,3.0,60,0.00,,,0.00,Wunderground v.1.15,2013-05-18 19:31:00,
2013-05-18 15:36:00,86.1,70.1,29.95,NW,313,0.0,6.0,59,0.00,,,0.00,Wunderground v.1.15,2013-05-18 19:36:00,
2013-05-18 15:41:00,86.1,70.1,29.95,West,281,3.0,3.0,59,0.00,,,0.00,Wunderground v.1.15,2013-05-18 19:41:00,
2013-05-18 15:46:00,86.1,70.6,29.95,WSW,254,3.0,8.0,60,0.00,,,0.00,Wunderground v.1.15,2013-05-18 19:46:00,
2013-05-18 15:51:00,86.1,70.6,29.95,West,280,3.0,10.0,60,0.00,,,0.00,Wunderground v.1.15,2013-05-18 19:51:00,
2013-05-18 15:56:00,85.9,70.4,29.95,WSW,254,5.0,13.0,60,0.00,,,0.00,Wunderground v.1.15,2013-05-18 19:56:00,
2013-05-18 16:01:00,85.5,70.0,29.95,WNW,302,5.0,5.0,60,0.00,,,0.00,Wunderground v.1.15,2013-05-18 20:01:00,
2013-05-18 16:06:00,85.3,69.8,29.95,NNW,330,0.0,8.0,60,0.00,,,0.00,Wunderground v.1.15,2013-05-18 20:06:00,
2013-05-18 16:11:00,85.3,70.3,29.95,NW,320,0.0,2.0,61,0.00,,,0.00,Wunderground v.1.15,2013-05-18 20:11:00,
2013-05-18 16:16:00,85.1,70.6,29.93,WNW,292,0.0,7.0,62,0.00,,,0.00,Wunderground v.1.15,2013-05-18 20:16:00,
2013-05-18 16:21:00,85.3,70.3,29.93,West,278,0.0,7.0,61,0.00,,,0.00,Wunderground v.1.15,2013-05-18 20:21:00,
2013-05-18 16:26:00,85.3,70.8,29.93,NW,305,1.0,7.0,62,0.00,,,0.00,Wunderground v.1.15,2013-05-18 20:26:00,
2013-05-18 16:31:00,84.9,70.4,29.93,NW,320,0.0,8.0,62,0.00,,,0.00,Wunderground v.1.15,2013-05-18 20:31:00,
2013-05-18 16:36:00,84.7,70.2,29.93,NNW,330,0.0,10.0,62,0.00,,,0.00,Wunderground v.1.15,2013-05-18 20:36:00,
2013-05-18 16:41:00,84.5,70.0,29.93,West,271,5.0,6.0,62,0.00,,,0.00,Wunderground v.1.15,2013-05-18 20:41:00,
2013-05-18 16:46:00,84.5,70.0,29.92,West,280,1.0,7.0,62,0.00,,,0.00,Wunderground v.1.15,2013-05-18 20:46:00,
2013-05-18 16:51:00,84.5,70.0,29.92,NW,311,0.0,8.0,62,0.00,,,0.00,Wunderground v.1.15,2013-05-18 20:51:00,
2013-05-18 16:56:00,84.5,70.0,29.92,NW,306,1.0,8.0,62,0.00,,,0.00,Wunderground v.1.15,2013-05-18 20:56:00,
2013-05-18 17:01:00,84.3,69.4,29.93,West,268,5.0,5.0,61,0.00,,,0.00,Wunderground v.1.15,2013-05-18 21:01:00,
2013-05-18 17:07:00,84.1,69.2,29.93,North,354,8.0,8.0,61,0.00,,,0.00,Wunderground v.1.15,2013-05-18 21:07:00,
2013-05-18 17:12:00,83.8,68.9,29.93,NW,308,0.0,1.0,61,0.00,,,0.00,Wunderground v.1.15,2013-05-18 21:12:00,
2013-05-18 17:17:00,83.8,68.9,29.92,WNW,298,1.0,6.0,61,0.00,,,0.00,Wunderground v.1.15,2013-05-18 21:17:00,
2013-05-18 17:22:00,83.6,69.2,29.92,North,359,0.0,1.0,62,0.00,,,0.00,Wunderground v.1.15,2013-05-18 21:22:00,
2013-05-18 17:27:00,83.4,69.0,29.92,North,356,2.0,10.0,62,0.00,,,0.00,Wunderground v.1.15,2013-05-18 21:27:00,
2013-05-18 17:32:00,83.4,69.0,29.92,NNW,340,0.0,5.0,62,0.00,,,0.00,Wunderground v.1.15,2013-05-18 21:32:00,
2013-05-18 17:37:00,83.2,68.3,29.92,NW,312,0.0,5.0,61,0.00,,,0.00,Wunderground v.1.15,2013-05-18 21:37:00,
2013-05-18 17:42:00,83.0,68.2,29.92,WNW,287,0.0,2.0,61,0.00,,,0.00,Wunderground v.1.15,2013-05-18 21:42:00,
2013-05-18 17:47:00,83.0,68.6,29.92,NNW,328,0.0,7.0,62,0.00,,,0.00,Wunderground v.1.15,2013-05-18 21:47:00,
2013-05-18 17:52:00,82.8,68.4,29.92,West,270,6.0,6.0,62,0.00,,,0.00,Wunderground v.1.15,2013-05-18 21:52:00,
2013-05-18 17:57:00,82.8,68.4,29.92,NW,319,0.0,6.0,62,0.00,,,0.00,Wunderground v.1.15,2013-05-18 21:57:00,
2013-05-18 18:02:00,82.6,68.3,29.92,North,350,0.0,2.0,62,0.00,,,0.00,Wunderground v.1.15,2013-05-18 22:02:00,
2013-05-18 18:07:00,82.4,68.1,29.92,North,0,0.0,6.0,62,0.00,,,0.00,Wunderground v.1.15,2013-05-18 22:07:00,
2013-05-18 18:12:00,82.4,68.5,29.92,NW,305,0.0,5.0,63,0.00,,,0.00,Wunderground v.1.15,2013-05-18 22:12:00,
2013-05-18 18:17:00,82.4,68.5,29.92,WSW,240,6.0,7.0,63,0.00,,,0.00,Wunderground v.1.15,2013-05-18 22:17:00,
2013-05-18 18:22:00,82.2,68.8,29.92,SW,216,0.0,7.0,64,0.00,,,0.00,Wunderground v.1.15,2013-05-18 22:22:00,
2013-05-18 18:27:00,82.2,68.8,29.92,WSW,256,0.0,7.0,64,0.00,,,0.00,Wunderground v.1.15,2013-05-18 22:27:00,
2013-05-18 18:32:00,81.8,68.9,29.92,West,272,1.0,8.0,65,0.00,,,0.00,Wunderground v.1.15,2013-05-18 22:32:00,
2013-05-18 18:37:00,81.6,68.7,29.92,West,275,5.0,8.0,65,0.00,,,0.00,Wunderground v.1.15,2013-05-18 22:37:00,
2013-05-18 18:42:00,81.4,68.9,29.92,WNW,292,0.0,1.0,66,0.00,,,0.00,Wunderground v.1.15,2013-05-18 22:42:00,
2013-05-18 18:47:00,81.2,68.8,29.92,NNW,342,1.0,6.0,66,0.00,,,0.00,Wunderground v.1.15,2013-05-18 22:47:00,
2013-05-18 18:52:00,81.1,69.1,29.92,WNW,287,0.0,4.0,67,0.00,,,0.00,Wunderground v.1.15,2013-05-18 22:52:00,
2013-05-18 18:57:00,80.9,68.9,29.92,WNW,302,0.0,4.0,67,0.00,,,0.00,Wunderground v.1.15,2013-05-18 22:57:00,
2013-05-18 19:02:00,80.7,68.7,29.93,NNW,335,0.0,6.0,67,0.00,,,0.00,Wunderground v.1.15,2013-05-18 23:02:00,
2013-05-18 19:07:00,80.3,68.8,29.93,North,0,0.0,6.0,68,0.00,,,0.00,Wunderground v.1.15,2013-05-18 23:07:00,
2013-05-18 19:12:00,80.1,68.6,29.93,NW,306,0.0,6.0,68,0.00,,,0.00,Wunderground v.1.15,2013-05-18 23:12:00,
2013-05-18 19:17:00,79.9,68.4,29.92,NW,325,0.0,6.0,68,0.00,,,0.00,Wunderground v.1.15,2013-05-18 23:17:00,
2013-05-18 19:22:00,79.8,68.3,29.92,NW,313,0.0,5.0,68,0.00,,,0.00,Wunderground v.1.15,2013-05-18 23:22:00,
2013-05-18 19:27:00,79.6,68.5,29.92,WNW,282,0.0,5.0,69,0.00,,,0.00,Wunderground v.1.15,2013-05-18 23:27:00,
2013-05-18 19:32:00,79.4,68.3,29.92,North,356,0.0,0.0,69,0.00,,,0.00,Wunderground v.1.15,2013-05-18 23:32:00,
2013-05-18 19:37:00,79.2,68.6,29.92,WNW,298,0.0,5.0,70,0.00,,,0.00,Wunderground v.1.15,2013-05-18 23:37:00,
2013-05-18 19:42:00,79.0,68.4,29.92,WNW,299,0.0,0.0,70,0.00,,,0.00,Wunderground v.1.15,2013-05-18 23:42:00,
2013-05-18 19:47:00,78.8,68.2,29.92,NW,315,0.0,1.0,70,0.00,,,0.00,Wunderground v.1.15,2013-05-18 23:47:00,
2013-05-18 19:53:00,78.6,68.0,29.92,SW,217,0.0,1.0,70,0.00,,,0.00,Wunderground v.1.15,2013-05-18 23:53:00,
2013-05-18 19:58:00,78.5,68.3,29.92,WSW,257,0.0,1.0,71,0.00,,,0.00,Wunderground v.1.15,2013-05-18 23:58:00,
2013-05-18 20:03:00,78.3,68.1,29.92,WSW,258,0.0,0.0,71,0.00,,,0.00,Wunderground v.1.15,2013-05-19 00:03:00,
2013-05-18 20:08:00,78.1,68.3,29.92,West,260,0.0,1.0,72,0.00,,,0.00,Wunderground v.1.15,2013-05-19 00:08:00,
2013-05-18 20:13:00,77.9,68.1,29.92,West,260,0.0,0.0,72,0.00,,,0.00,Wunderground v.1.15,2013-05-19 00:13:00,
2013-05-18 20:18:00,77.7,68.0,29.93,West,260,0.0,0.0,72,0.00,,,0.00,Wunderground v.1.15,2013-05-19 00:18:00,
2013-05-18 20:23:00,77.6,67.9,29.93,WSW,258,0.0,0.0,72,0.00,,,0.00,Wunderground v.1.15,2013-05-19 00:23:00,
2013-05-18 20:28:00,77.4,68.1,29.93,West,260,0.0,2.0,73,0.00,,,0.00,Wunderground v.1.15,2013-05-19 00:28:00,
2013-05-18 20:33:00,77.2,67.9,29.93,West,260,0.0,0.0,73,0.00,,,0.00,Wunderground v.1.15,2013-05-19 00:33:00,
2013-05-18 20:38:00,77.2,67.9,29.93,West,260,0.0,0.0,73,0.00,,,0.00,Wunderground v.1.15,2013-05-19 00:38:00,
2013-05-18 20:43:00,77.0,68.1,29.93,West,260,0.0,0.0,74,0.00,,,0.00,Wunderground v.1.15,2013-05-19 00:43:00,
2013-05-18 20:48:00,76.8,67.9,29.93,West,260,0.0,0.0,74,0.00,,,0.00,Wunderground v.1.15,2013-05-19 00:48:00,
2013-05-18 20:53:00,76.8,67.9,29.93,West,260,0.0,0.0,74,0.00,,,0.00,Wunderground v.1.15,2013-05-19 00:53:00,
2013-05-18 20:58:00,76.7,67.8,29.93,West,260,0.0,0.0,74,0.00,,,0.00,Wunderground v.1.15,2013-05-19 00:58:00,
2013-05-18 21:03:00,76.5,67.6,29.93,West,260,0.0,0.0,74,0.00,,,0.00,Wunderground v.1.15,2013-05-19 01:03:00,
2013-05-18 21:08:00,76.3,67.4,29.93,West,260,0.0,0.0,74,0.00,,,0.00,Wunderground v.1.15,2013-05-19 01:08:00,
2013-05-18 21:13:00,76.3,67.4,29.93,West,260,0.0,0.0,74,0.00,,,0.00,Wunderground v.1.15,2013-05-19 01:13:00,
2013-05-18 21:18:00,76.1,67.2,29.93,West,260,0.0,0.0,74,0.00,,,0.00,Wunderground v.1.15,2013-05-19 01:18:00,
2013-05-18 21:23:00,76.1,67.6,29.93,West,260,0.0,0.0,75,0.00,,,0.00,Wunderground v.1.15,2013-05-19 01:23:00,
2013-05-18 21:28:00,76.0,67.5,29.93,West,260,0.0,0.0,75,0.00,,,0.00,Wunderground v.1.15,2013-05-19 01:28:00,
2013-05-18 21:33:00,75.8,67.3,29.93,West,260,0.0,0.0,75,0.00,,,0.00,Wunderground v.1.15,2013-05-19 01:33:00,
2013-05-18 21:38:00,75.8,67.3,29.93,West,260,0.0,0.0,75,0.00,,,0.00,Wunderground v.1.15,2013-05-19 01:38:00,
2013-05-18 21:43:00,75.6,67.1,29.93,West,260,0.0,0.0,75,0.00,,,0.00,Wunderground v.1.15,2013-05-19 01:43:00,
2013-05-18 21:48:00,75.6,67.1,29.94,West,260,0.0,0.0,75,0.00,,,0.00,Wunderground v.1.15,2013-05-19 01:48:00,
2013-05-18 21:53:00,75.4,66.9,29.94,West,260,0.0,0.0,75,0.00,,,0.00,Wunderground v.1.15,2013-05-19 01:53:00,
2013-05-18 21:58:00,75.4,66.9,29.94,West,260,0.0,0.0,75,0.00,,,0.00,Wunderground v.1.15,2013-05-19 01:58:00,
2013-05-18 22:03:00,75.4,66.9,29.94,WSW,258,0.0,0.0,75,0.00,,,0.00,Wunderground v.1.15,2013-05-19 02:03:00,
2013-05-18 22:08:00,75.3,66.8,29.94,West,260,0.0,0.0,75,0.00,,,0.00,Wunderground v.1.15,2013-05-19 02:08:00,
2013-05-18 22:13:00,75.3,67.2,29.94,West,260,0.0,0.0,76,0.00,,,0.00,Wunderground v.1.15,2013-05-19 02:13:00,
2013-05-18 22:19:00,75.1,67.0,29.94,West,260,0.0,0.0,76,0.00,,,0.00,Wunderground v.1.15,2013-05-19 02:19:00,
2013-05-18 22:24:00,74.9,66.8,29.94,West,260,0.0,0.0,76,0.00,,,0.00,Wunderground v.1.15,2013-05-19 02:24:00,
2013-05-18 22:29:00,74.9,66.8,29.94,WSW,258,0.0,0.0,76,0.00,,,0.00,Wunderground v.1.15,2013-05-19 02:29:00,
2013-05-18 22:34:00,74.9,66.8,29.95,West,260,0.0,0.0,76,0.00,,,0.00,Wunderground v.1.15,2013-05-19 02:34:00,
2013-05-18 22:39:00,74.7,66.6,29.95,West,260,0.0,0.0,76,0.00,,,0.00,Wunderground v.1.15,2013-05-19 02:39:00,
2013-05-18 22:44:00,74.7,66.6,29.95,WSW,258,0.0,0.0,76,0.00,,,0.00,Wunderground v.1.15,2013-05-19 02:44:00,
2013-05-18 22:49:00,74.6,66.5,29.95,West,260,0.0,0.0,76,0.00,,,0.00,Wunderground v.1.15,2013-05-19 02:49:00,
2013-05-18 22:54:00,74.6,66.5,29.95,WSW,258,0.0,0.0,76,0.00,,,0.00,Wunderground v.1.15,2013-05-19 02:54:00,
2013-05-18 22:59:00,74.4,66.7,29.95,West,260,0.0,0.0,77,0.00,,,0.00,Wunderground v.1.15,2013-05-19 02:59:00,
2013-05-18 23:04:00,74.2,66.5,29.96,West,260,0.0,0.0,77,0.00,,,0.00,Wunderground v.1.15,2013-05-19 03:04:00,
2013-05-18 23:09:00,74.2,66.5,29.96,West,260,0.0,0.0,77,0.00,,,0.00,Wunderground v.1.15,2013-05-19 03:09:00,
2013-05-18 23:14:00,74.0,66.3,29.96,WSW,258,0.0,0.0,77,0.00,,,0.00,Wunderground v.1.15,2013-05-19 03:14:00,
2013-05-18 23:19:00,74.0,66.3,29.96,West,260,0.0,0.0,77,0.00,,,0.00,Wunderground v.1.15,2013-05-19 03:19:00,
2013-05-18 23:24:00,73.9,66.2,29.96,West,260,0.0,0.0,77,0.00,,,0.00,Wunderground v.1.15,2013-05-19 03:24:00,
2013-05-18 23:29:00,73.9,66.2,29.96,WSW,258,0.0,0.0,77,0.00,,,0.00,Wunderground v.1.15,2013-05-19 03:29:00,
2013-05-18 23:34:00,73.9,66.6,29.96,WSW,258,0.0,0.0,78,0.00,,,0.00,Wunderground v.1.15,2013-05-19 03:34:00,
2013-05-18 23:39:00,73.9,66.6,29.96,West,260,0.0,0.0,78,0.00,,,0.00,Wunderground v.1.15,2013-05-19 03:39:00,
2013-05-18 23:44:00,73.9,66.6,29.96,West,260,0.0,0.0,78,0.00,,,0.00,Wunderground v.1.15,2013-05-19 03:44:00,
2013-05-18 23:49:00,73.7,66.4,29.96,WSW,258,0.0,0.0,78,0.00,,,0.00,Wunderground v.1.15,2013-05-19 03:49:00,
2013-05-18 23:54:00,73.7,66.4,29.96,West,260,0.0,0.0,78,0.00,,,0.00,Wunderground v.1.15,2013-05-19 03:54:00,
2013-05-18 23:59:00,73.7,66.4,29.97,West,260,0.0,0.0,78,0.00,,,0.00,Wunderground v.1.15,2013-05-19 03:59:00,